Victoria Habour — VRIJ2 — position and weather

sailwx.info

Track history (hours):
 
Tides and Currents Weather Stations Pressure Air Temp Water Temp Dewpoint Dewpoint Depression Visibility Wind Speed Wind Dir Waves Ship Positions

Victoria Habour

Last reported at 2018-Jan-10 07:58 UTC. Time now 2018-Jan-20 03:47 UTC.
Position N 01°14' E 103°58'.
Warning: this ship's position is 9 days out of date.

Length 170 m; draft 10.2 m.

Type: Cargo ship. MMSI: 338060044.

Date/timePositionNaut miles runAvg speedWind from/ knotsBaromVisibWave heightAir tempDewpointWater temp
2018-Jan-10 07:58N 01°14' E 103°58'3 6.5
2018-Jan-10 07:29N 01°16' E 103°55'2 4.4
2018-Jan-10 06:57N 01°16' E 103°53'0 0.0
2018-Jan-09 23:48N 01°16' E 103°53'1 2.4
2018-Jan-09 23:25N 01°16' E 103°54'2 5.1
2018-Jan-09 22:59N 01°16' E 103°56'3 6.8
2018-Jan-09 22:28N 01°12' E 103°55'5 9.9
2018-Jan-09 21:59N 01°11' E 103°50'4 7.5
2018-Jan-09 21:30N 01°09' E 103°47'5 9.5
2018-Jan-09 21:00N 01°06' E 103°44'510.8
2018-Jan-09 20:30N 01°02' E 103°39'612.0
2018-Jan-09 19:59N 01°05' E 103°34'612.4
2018-Jan-09 19:29N 01°09' E 103°29'612.4
2018-Jan-09 19:00N 01°12' E 103°24'  
Track history (hours):
 
Tides and Currents Weather Stations Pressure Air Temp Water Temp Dewpoint Dewpoint Depression Visibility Wind Speed Wind Dir Waves Ship Positions

Victoria Habour

Last reported at 2018-Jan-10 07:58 UTC. Time now 2018-Jan-20 03:47 UTC.
Position N 01°14' E 103°58'.
Warning: this ship's position is 9 days out of date.

Length 170 m; draft 10.2 m.

Type: Cargo ship. MMSI: 338060044.

Date/timePositionNaut miles runAvg speedWind from/ knotsBaromVisibWave heightAir tempDewpointWater temp
2018-Jan-10 07:58N 01°14' E 103°58'3 6.5
2018-Jan-10 07:29N 01°16' E 103°55'2 4.4
2018-Jan-10 06:57N 01°16' E 103°53'0 0.0
2018-Jan-09 23:48N 01°16' E 103°53'1 2.4
2018-Jan-09 23:25N 01°16' E 103°54'2 5.1
2018-Jan-09 22:59N 01°16' E 103°56'3 6.8
2018-Jan-09 22:28N 01°12' E 103°55'5 9.9
2018-Jan-09 21:59N 01°11' E 103°50'4 7.5
2018-Jan-09 21:30N 01°09' E 103°47'5 9.5
2018-Jan-09 21:00N 01°06' E 103°44'510.8
2018-Jan-09 20:30N 01°02' E 103°39'612.0
2018-Jan-09 19:59N 01°05' E 103°34'612.4
2018-Jan-09 19:29N 01°09' E 103°29'612.4
2018-Jan-09 19:00N 01°12' E 103°24'  

Dump ship's entire track history